Weather observations for the past three days for
Saint John, N. B.
| Date | Time (adt) | Wind (kph) | Vis. (km) | Weather | Sky Cond. | Temperature (ºC) | Relative Humidity | Wind Chill (°C) | Heat Index (°C) | Pressure | Precipitation (cm) | ||||||
|---|---|---|---|---|---|---|---|---|---|---|---|---|---|---|---|---|---|
| Air | Dwpt | 6 hour | altimeter (cm) | sea level (mb) | 1 hr | 3 hr | 6 hr | ||||||||||
| Max. | Min. | ||||||||||||||||
| 06 | 18:00 | N 26 G 35 | 24.14 | Light Rain | FEW012 SCT038 OVC080 | 11 | 10 | 94% | 75.79 | 1010.8 | |||||||
| 06 | 17:00 | N 28 G 39 | 8.05 | Light Rain Fog/Mist | BKN008 OVC020 | 11 | 11 | 100% | 75.77 | 1010.7 | |||||||
| 06 | 16:00 | N 17 G 28 | 8.05 | Rain Fog/Mist | OVC008 | 11 | 11 | 100% | 75.77 | 1010.5 | |||||||
| 06 | 15:00 | N 30 G 46 | 12.87 | Light Rain | OVC011 | 12 | 11 | 94% | 75.77 | 1010.6 | |||||||
| 06 | 14:00 | N 22 G 35 | 19.31 | Light Rain | OVC010 | 11 | 11 | 100% | 75.77 | 1010.6 | |||||||
| 06 | 13:00 | N 30 G 41 | 16.09 | Light Rain | OVC010 | 11 | 11 | 100% | 75.77 | 1010.6 | |||||||
| 06 | 12:00 | N 26 G 39 | 24.14 | Light Rain | OVC010 | 11 | 11 | 100% | 75.77 | 1010.7 | |||||||
| 06 | 11:00 | N 30 G 46 | 19.31 | Light Rain | OVC010 | 11 | 11 | 100% | 75.77 | 1010.6 | |||||||
| 06 | 10:00 | N 30 G 52 | 19.31 | Light Rain | BKN011 OVC085 | 11 | 11 | 100% | 75.74 | 1010.1 | |||||||
| 06 | 09:00 | N 33 G 52 | 16.09 | Light Rain and Breezy | BKN010 OVC073 | 11 | 11 | 100% | 75.74 | 1010.2 | |||||||
| 06 | 08:00 | N 35 G 50 | 12.87 | Light Rain and Breezy | BKN009 OVC100 | 10 | 10 | 100% | 7 | 75.72 | 1010.0 | ||||||
| 06 | 07:00 | N 31 G 43 | 24.14 | Overcast | OVC012 | 11 | 10 | 94% | 75.69 | 1009.6 | |||||||
| 06 | 06:00 | N 31 G 46 | 24.14 | Overcast | OVC011 | 11 | 10 | 94% | 75.69 | 1009.3 | |||||||
| 06 | 05:00 | N 28 G 41 | 24.14 | Overcast | OVC010 | 12 | 11 | 94% | 75.69 | 1009.6 | |||||||
| 06 | 04:00 | N 33 G 44 | 24.14 | Overcast and Breezy | OVC009 | 11 | 11 | 100% | 75.69 | 1009.4 | |||||||
| 06 | 03:00 | N 24 G 41 | 16.09 | Overcast | OVC009 | 11 | 11 | 100% | 75.69 | 1009.6 | |||||||
| 06 | 02:00 | N 30 G 44 | 12.87 | Overcast | OVC007 | 11 | 11 | 100% | 75.69 | 1009.5 | |||||||
| 06 | 01:00 | N 37 G 46 | 12.87 | Light Rain and Breezy | OVC007 | 12 | 12 | 100% | 75.67 | 1009.2 | |||||||
| 06 | 00:00 | N 33 G 50 | 16.09 | Overcast and Breezy | SCT012 OVC024 | 12 | 12 | 100% | 75.69 | 1009.4 | |||||||
| 05 | 23:00 | N 37 G 50 | 24.14 | Overcast and Breezy | OVC024 | 14 | 10 | 77% | 75.72 | 1009.9 | |||||||
| 05 | 22:00 | N 31 G 52 | 24.14 | Overcast | OVC021 | 14 | 11 | 82% | 75.77 | 1010.4 | |||||||
| 05 | 21:00 | N 35 G 52 | 24.14 | Mostly Cloudy and Breezy | BKN027 | 14 | 11 | 82% | 75.74 | 1010.2 | |||||||
| 05 | 20:00 | N 43 G 59 | 24.14 | Mostly Cloudy and Windy | FEW023 BKN050 BKN086 | 14 | 12 | 88% | 75.69 | 1009.5 | |||||||
| 05 | 19:00 | N 37 G 52 | 24.14 | Mostly Cloudy and Breezy | FEW020 BKN044 BKN080 | 15 | 12 | 82% | 75.69 | 1009.4 | |||||||
| 05 | 18:00 | N 28 G 44 | 24.14 | Mostly Cloudy | SCT024 BKN055 BKN080 | 17 | 12 | 73% | 75.64 | 1008.8 | |||||||
| 05 | 17:00 | NE 37 G 52 | 24.14 | Showers in Vicinity and Breezy | SCT026 BKN078 | 17 | 11 | 68% | 75.62 | 1008.4 | |||||||
| 05 | 15:00 | NE 28 G 52 | 24.14 | Mostly Cloudy | SCT019 BKN035 | 16 | 15 | 94% | 75.59 | 1007.9 | |||||||
| 05 | 14:00 | N 30 G 43 | 24.14 | Light Showers Rain | BKN020 BKN095 | 16 | 14 | 88% | 75.57 | 1007.6 | |||||||
| 05 | 13:00 | N 37 G 48 | 24.14 | Light Showers Rain and Breezy | BKN025 BKN095 | 17 | 13 | 77% | 75.51 | 1007.0 | |||||||
| 05 | 12:00 | NE 31 G 46 | 24.14 | Mostly Cloudy | BKN017 | 17 | 14 | 83% | 75.49 | 1006.7 | |||||||
| 05 | 11:00 | N 35 G 44 | 16.09 | Showers in Vicinity and Breezy | BKN015 | 16 | 13 | 83% | 75.49 | 1006.8 | |||||||
| 05 | 09:00 | N 24 G 46 | 24.14 | Overcast | OVC015 | 15 | 15 | 100% | 75.46 | 1006.2 | |||||||
| 05 | 08:00 | N 33 G 52 | 24.14 | Overcast and Breezy | OVC015 | 15 | 13 | 88% | 75.41 | 1005.6 | |||||||
| 05 | 07:00 | N 39 | 24.14 | Overcast and Breezy | OVC013 | 15 | 13 | 88% | 75.41 | 1005.5 | |||||||
| 05 | 06:00 | N 28 G 39 | 24.14 | Overcast | OVC012 | 15 | 14 | 94% | 75.41 | 1005.5 | |||||||
| 05 | 05:00 | N 31 G 44 | 24.14 | Overcast | OVC016 | 15 | 14 | 94% | 75.36 | 1005.1 | |||||||
| 05 | 04:00 | N 30 G 39 | 16.09 | Overcast | OVC012 | 16 | 16 | 100% | 75.36 | 1004.9 | |||||||
| 05 | 03:00 | N 30 G 44 | 24.14 | Overcast | OVC013 | 16 | 15 | 94% | 75.34 | 1004.8 | |||||||
| 05 | 02:00 | N 22 G 35 | 24.14 | Overcast | OVC009 | 16 | 16 | 100% | 75.36 | 1004.9 | |||||||
| 05 | 01:00 | N 24 G 35 | 24.14 | Mostly Cloudy | BKN009 BKN020 | 16 | 16 | 100% | 75.36 | 1005.0 | |||||||
| 05 | 00:00 | N 22 | 24.14 | Overcast | BKN007 OVC014 | 17 | 17 | 100% | 75.39 | 1005.2 | |||||||
| 04 | 23:00 | N 15 | 24.14 | Overcast | BKN011 OVC060 | 17 | 17 | 100% | 75.39 | 1005.4 | |||||||
| 04 | 22:00 | N 17 G 28 | 24.14 | Overcast | BKN010 OVC035 | 18 | 18 | 100% | 75.41 | 1005.5 | |||||||
| 04 | 20:00 | NW 9 | 24.14 | A Few Clouds | FEW020 FEW070 | 17 | 17 | 100% | 75.36 | 1005.1 | |||||||
| 04 | 19:00 | NW 9 | 24.14 | A Few Clouds | FEW020 | 20 | 17 | 83% | 75.36 | 1005.1 | |||||||
| 04 | 18:00 | N 19 | 24.14 | Partly Cloudy | SCT020 | 20 | 17 | 83% | 75.41 | 1005.6 | |||||||
| 04 | 17:00 | N 20 | 19.31 | Overcast | SCT012 OVC025 | 19 | 17 | 88% | 75.41 | 1005.8 | |||||||
| 04 | 16:00 | NW 20 G 31 | 24.14 | Overcast | SCT014 OVC023 | 19 | 17 | 88% | 75.44 | 1005.9 | |||||||
| 04 | 15:00 | N 20 | 19.31 | Overcast | BKN010 OVC015 | 19 | 17 | 88% | 75.46 | 1006.2 | |||||||
| 04 | 14:00 | NW 17 | 12.87 | Overcast | OVC009 | 19 | 19 | 100% | 75.46 | 1006.4 | |||||||
| 04 | 13:00 | NW 19 | 12.87 | Overcast | OVC009 | 19 | 17 | 88% | 75.49 | 1006.7 | |||||||
| 04 | 12:00 | N 11 | 6.44 | Fog/Mist | BKN005 OVC011 | 19 | 19 | 100% | 75.54 | 1007.2 | |||||||
| 04 | 11:00 | NW 11 | 4.83 | Fog/Mist | OVC004 | 18 | 18 | 100% | 75.54 | 1007.5 | |||||||
| 04 | 10:00 | Vrbl 4 | 4.83 | Fog/Mist | OVC004 | 18 | 18 | 100% | 75.57 | 1007.8 | |||||||
| 04 | 09:00 | E 7 | 4.83 | Fog/Mist | OVC005 | 17 | 17 | 100% | 75.62 | 1008.2 | |||||||
| 04 | 08:00 | E 9 | 4.83 | Light Drizzle Fog/Mist | OVC005 | 16 | 16 | 100% | 75.62 | 1008.4 | |||||||
| 04 | 07:00 | E 7 | 8.05 | Light Drizzle Fog/Mist | BKN006 OVC013 | 16 | 16 | 100% | 75.62 | 1008.4 | |||||||
| 04 | 06:00 | E 7 | 4.83 | Light Rain Fog/Mist | FEW006 OVC016 | 15 | 15 | 100% | 75.67 | 1009.0 | |||||||
| 04 | 05:00 | E 15 | 4.83 | Light Rain Fog/Mist | SCT005 OVC020 | 15 | 15 | 100% | 75.69 | 1009.5 | |||||||
| 04 | 04:00 | E 15 | 4.83 | Light Rain Fog/Mist | SCT004 OVC023 | 15 | 15 | 100% | 75.74 | 1010.1 | |||||||
| 04 | 03:00 | E 24 | 4.83 | Light Rain Fog/Mist | BKN005 OVC025 | 15 | 15 | 100% | 75.79 | 1010.9 | |||||||
| 04 | 02:00 | SE 22 | 4.83 | Light Rain Fog/Mist | OVC005 | 15 | 15 | 100% | 75.87 | 1011.9 | |||||||
| 04 | 01:00 | E 20 | 4.83 | Light Rain Fog/Mist | OVC005 | 15 | 15 | 100% | 75.95 | 1012.8 | |||||||
| 04 | 00:00 | SE 17 | 3.22 | Light Rain Fog/Mist | BKN006 OVC021 | 15 | 15 | 100% | 76 | 1013.4 | |||||||
| 03 | 23:00 | SE 22 G 31 | 3.22 | Rain Fog/Mist | BKN005 OVC032 | 15 | 15 | 100% | 76.02 | 1013.9 | |||||||
| 03 | 22:00 | SE 19 G 31 | 4.83 | Light Rain Fog/Mist | BKN006 OVC024 | 16 | 16 | 100% | 76.07 | 1014.6 | |||||||
| 03 | 21:00 | SE 20 G 30 | 4.83 | Light Rain Fog/Mist | SCT005 BKN017 OVC038 | 15 | 15 | 100% | 76.1 | 1014.9 | |||||||
| 03 | 20:00 | SE 15 G 28 | 8.05 | Light Rain Fog/Mist | BKN018 OVC043 | 16 | 16 | 100% | 76.12 | 1015.4 | |||||||
| 03 | 19:00 | SE 17 G 28 | 8.05 | Light Rain Fog/Mist | OVC035 | 16 | 16 | 100% | 76.17 | 1015.9 | |||||||
| Date | Time (adt) | Wind (kph) | Vis. (km) | Weather | Sky Cond. | Air | Dwpt | Max. | Min. | Relative Humidity | Wind Chill (°C) | Heat Index (°C) | altimeter (cm) | sea level (mb) | 1 hr | 3 hr | 6 hr |
| 6 hour | |||||||||||||||||
| Temperature (ºC) | Pressure | Precipitation (cm) | |||||||||||||||